sensor_id;sensor_type;location;lat;lon;timestamp;pressure;altitude;pressure_sealevel;temperature;humidity
21401;BME280;18038;50.166;18.908;2023-03-08T00:02:07;96196.47;;;1.54;70.69
21401;BME280;18038;50.166;18.908;2023-03-08T00:05:14;96187.59;;;1.55;70.84
21401;BME280;18038;50.166;18.908;2023-03-08T00:08:22;96196.38;;;1.62;70.81
21401;BME280;18038;50.166;18.908;2023-03-08T00:11:30;96191.75;;;1.49;70.67
21401;BME280;18038;50.166;18.908;2023-03-08T00:14:36;96200.66;;;1.48;71.08
21401;BME280;18038;50.166;18.908;2023-03-08T00:17:42;96195.66;;;1.68;70.55
21401;BME280;18038;50.166;18.908;2023-03-08T00:20:58;96201.84;;;1.60;70.44
21401;BME280;18038;50.166;18.908;2023-03-08T00:24:08;96201.56;;;1.55;70.59
21401;BME280;18038;50.166;18.908;2023-03-08T00:27:18;96204.09;;;1.63;70.62
21401;BME280;18038;50.166;18.908;2023-03-08T00:30:25;96203.28;;;1.48;70.96
21401;BME280;18038;50.166;18.908;2023-03-08T00:33:32;96206.72;;;1.48;70.58
21401;BME280;18038;50.166;18.908;2023-03-08T00:36:41;96203.41;;;1.55;70.68
21401;BME280;18038;50.166;18.908;2023-03-08T00:39:54;96209.53;;;1.62;70.41
21401;BME280;18038;50.166;18.908;2023-03-08T00:43:01;96209.09;;;1.58;70.57
21401;BME280;18038;50.166;18.908;2023-03-08T00:46:09;96210.28;;;1.56;70.35
21401;BME280;18038;50.166;18.908;2023-03-08T00:49:16;96211.19;;;1.48;70.69
21401;BME280;18038;50.166;18.908;2023-03-08T00:52:25;96208.13;;;1.44;70.90
21401;BME280;18038;50.166;18.908;2023-03-08T00:55:35;96218.81;;;1.58;70.60
21401;BME280;18038;50.166;18.908;2023-03-08T00:58:41;96200.75;;;1.55;70.52
21401;BME280;18038;50.166;18.908;2023-03-08T01:01:48;96217.53;;;1.54;70.71
21401;BME280;18038;50.166;18.908;2023-03-08T01:04:57;96212.91;;;1.41;70.76
21401;BME280;18038;50.166;18.908;2023-03-08T01:08:04;96212.91;;;1.41;70.78
21401;BME280;18038;50.166;18.908;2023-03-08T01:11:19;96213.81;;;1.48;70.34
21401;BME280;18038;50.166;18.908;2023-03-08T01:14:27;96215.53;;;1.56;70.11
21401;BME280;18038;50.166;18.908;2023-03-08T01:17:34;96214.63;;;1.48;69.95
21401;BME280;18038;50.166;18.908;2023-03-08T01:20:40;96206.19;;;1.38;70.16
21401;BME280;18038;50.166;18.908;2023-03-08T01:23:48;96195.06;;;1.36;69.85
21401;BME280;18038;50.166;18.908;2023-03-08T01:26:58;96207.19;;;1.37;70.19
21401;BME280;18038;50.166;18.908;2023-03-08T01:30:06;96201.00;;;1.30;70.24
21401;BME280;18038;50.166;18.908;2023-03-08T01:33:16;96206.38;;;1.37;70.25
21401;BME280;18038;50.166;18.908;2023-03-08T01:36:27;96206.63;;;1.27;70.51
21401;BME280;18038;50.166;18.908;2023-03-08T01:39:34;96200.94;;;1.23;70.58
21401;BME280;18038;50.166;18.908;2023-03-08T01:42:43;96203.72;;;1.22;70.26
21401;BME280;18038;50.166;18.908;2023-03-08T01:46:14;96202.19;;;1.27;70.19
21401;BME280;18038;50.166;18.908;2023-03-08T01:49:30;96200.81;;;1.17;70.14
21401;BME280;18038;50.166;18.908;2023-03-08T01:52:46;96193.41;;;1.20;70.11
21401;BME280;18038;50.166;18.908;2023-03-08T01:55:56;96192.41;;;1.21;69.51
21401;BME280;18038;50.166;18.908;2023-03-08T01:59:07;96183.06;;;1.19;70.01
21401;BME280;18038;50.166;18.908;2023-03-08T02:02:16;96192.03;;;1.24;69.59
21401;BME280;18038;50.166;18.908;2023-03-08T02:05:26;96191.88;;;1.26;69.69
21401;BME280;18038;50.166;18.908;2023-03-08T02:08:42;96182.94;;;1.12;69.67
21401;BME280;18038;50.166;18.908;2023-03-08T02:11:49;96195.19;;;1.20;69.72
21401;BME280;18038;50.166;18.908;2023-03-08T02:15:03;96195.13;;;1.13;70.04
21401;BME280;18038;50.166;18.908;2023-03-08T02:18:12;96201.56;;;1.25;69.89
21401;BME280;18038;50.166;18.908;2023-03-08T02:21:19;96201.91;;;1.07;69.94
21401;BME280;18038;50.166;18.908;2023-03-08T02:24:30;96186.78;;;1.10;70.18
21401;BME280;18038;50.166;18.908;2023-03-08T02:27:36;96193.84;;;1.09;69.47
21401;BME280;18038;50.166;18.908;2023-03-08T02:30:43;96193.75;;;1.02;69.57
21401;BME280;18038;50.166;18.908;2023-03-08T02:33:49;96199.44;;;1.06;69.60
21401;BME280;18038;50.166;18.908;2023-03-08T02:36:57;96201.56;;;1.11;69.42
21401;BME280;18038;50.166;18.908;2023-03-08T02:40:07;96198.66;;;1.05;69.38
21401;BME280;18038;50.166;18.908;2023-03-08T02:43:17;96217.66;;;0.93;69.60
21401;BME280;18038;50.166;18.908;2023-03-08T02:46:24;96215.84;;;0.93;69.64
21401;BME280;18038;50.166;18.908;2023-03-08T02:49:33;96225.53;;;0.93;69.51
21401;BME280;18038;50.166;18.908;2023-03-08T02:52:40;96227.34;;;0.92;69.45
21401;BME280;18038;50.166;18.908;2023-03-08T02:55:48;96224.00;;;0.98;69.13
21401;BME280;18038;50.166;18.908;2023-03-08T02:58:55;96235.59;;;0.89;69.38
21401;BME280;18038;50.166;18.908;2023-03-08T03:02:01;96235.47;;;0.82;69.33
21401;BME280;18038;50.166;18.908;2023-03-08T03:05:10;96246.63;;;0.84;69.22
21401;BME280;18038;50.166;18.908;2023-03-08T03:08:17;96236.84;;;0.78;69.18
21401;BME280;18038;50.166;18.908;2023-03-08T03:11:26;96234.84;;;0.80;69.13
21401;BME280;18038;50.166;18.908;2023-03-08T03:14:33;96247.97;;;0.80;68.65
21401;BME280;18038;50.166;18.908;2023-03-08T03:17:40;96257.16;;;0.84;68.46
21401;BME280;18038;50.166;18.908;2023-03-08T03:20:49;96252.19;;;0.90;68.51
21401;BME280;18038;50.166;18.908;2023-03-08T03:23:56;96256.16;;;0.85;68.00
21401;BME280;18038;50.166;18.908;2023-03-08T03:27:12;96265.50;;;0.88;67.48
21401;BME280;18038;50.166;18.908;2023-03-08T03:30:19;96272.75;;;0.86;67.44
21401;BME280;18038;50.166;18.908;2023-03-08T03:33:28;96279.28;;;0.90;66.89
21401;BME280;18038;50.166;18.908;2023-03-08T03:36:35;96284.09;;;0.87;67.13
21401;BME280;18038;50.166;18.908;2023-03-08T03:39:41;96298.19;;;0.85;66.54
21401;BME280;18038;50.166;18.908;2023-03-08T03:42:53;96286.41;;;0.81;65.65
21401;BME280;18038;50.166;18.908;2023-03-08T03:46:13;96300.97;;;0.92;65.44
21401;BME280;18038;50.166;18.908;2023-03-08T03:49:29;96298.63;;;0.97;65.37
21401;BME280;18038;50.166;18.908;2023-03-08T03:52:35;96301.47;;;0.88;65.16
21401;BME280;18038;50.166;18.908;2023-03-08T03:55:42;96311.84;;;0.89;65.16
21401;BME280;18038;50.166;18.908;2023-03-08T03:58:51;96308.84;;;0.92;64.35
21401;BME280;18038;50.166;18.908;2023-03-08T04:02:00;96312.81;;;0.88;64.29
21401;BME280;18038;50.166;18.908;2023-03-08T04:05:16;96313.88;;;0.79;64.29
21401;BME280;18038;50.166;18.908;2023-03-08T04:08:27;96315.63;;;0.87;64.26
21401;BME280;18038;50.166;18.908;2023-03-08T04:11:37;96317.91;;;0.90;64.16
21401;BME280;18038;50.166;18.908;2023-03-08T04:14:54;96325.44;;;0.93;64.26
21401;BME280;18038;50.166;18.908;2023-03-08T04:18:07;96327.97;;;0.86;64.44
21401;BME280;18038;50.166;18.908;2023-03-08T04:21:17;96317.59;;;0.84;64.30
21401;BME280;18038;50.166;18.908;2023-03-08T04:24:26;96322.06;;;0.84;64.50
21401;BME280;18038;50.166;18.908;2023-03-08T04:27:37;96325.72;;;0.75;64.26
21401;BME280;18038;50.166;18.908;2023-03-08T04:30:47;96306.72;;;0.65;64.17
21401;BME280;18038;50.166;18.908;2023-03-08T04:33:57;96318.19;;;0.72;64.13
21401;BME280;18038;50.166;18.908;2023-03-08T04:37:04;96327.94;;;0.63;64.38
21401;BME280;18038;50.166;18.908;2023-03-08T04:40:12;96328.41;;;0.67;64.26
21401;BME280;18038;50.166;18.908;2023-03-08T04:43:27;96335.00;;;0.62;64.35
21401;BME280;18038;50.166;18.908;2023-03-08T04:46:37;96329.84;;;0.69;64.13
21401;BME280;18038;50.166;18.908;2023-03-08T04:49:48;96322.97;;;0.68;64.35
21401;BME280;18038;50.166;18.908;2023-03-08T04:52:55;96325.53;;;0.76;63.75
21401;BME280;18038;50.166;18.908;2023-03-08T04:56:03;96320.50;;;0.67;63.78
21401;BME280;18038;50.166;18.908;2023-03-08T04:59:11;96338.25;;;0.65;64.27
21401;BME280;18038;50.166;18.908;2023-03-08T05:02:29;96343.09;;;0.53;64.02
21401;BME280;18038;50.166;18.908;2023-03-08T05:05:44;96338.50;;;0.55;64.14
21401;BME280;18038;50.166;18.908;2023-03-08T05:08:52;96322.06;;;0.53;64.08
21401;BME280;18038;50.166;18.908;2023-03-08T05:12:00;96330.13;;;0.51;64.07
21401;BME280;18038;50.166;18.908;2023-03-08T05:15:26;96344.44;;;0.49;63.86
21401;BME280;18038;50.166;18.908;2023-03-08T05:18:35;96341.50;;;0.44;64.01
21401;BME280;18038;50.166;18.908;2023-03-08T05:21:43;96343.50;;;0.42;63.95
21401;BME280;18038;50.166;18.908;2023-03-08T05:24:50;96340.00;;;0.49;63.58
21401;BME280;18038;50.166;18.908;2023-03-08T05:27:58;96339.66;;;0.52;63.89
21401;BME280;18038;50.166;18.908;2023-03-08T05:31:14;96341.16;;;0.47;63.44
21401;BME280;18038;50.166;18.908;2023-03-08T05:34:25;96343.75;;;0.55;63.11
21401;BME280;18038;50.166;18.908;2023-03-08T05:37:33;96355.22;;;0.54;63.21
21401;BME280;18038;50.166;18.908;2023-03-08T05:40:40;96368.25;;;0.47;63.16
21401;BME280;18038;50.166;18.908;2023-03-08T05:43:49;96369.41;;;0.45;63.06
21401;BME280;18038;50.166;18.908;2023-03-08T05:46:56;96371.03;;;0.46;63.35
21401;BME280;18038;50.166;18.908;2023-03-08T05:50:09;96369.72;;;0.50;63.14
21401;BME280;18038;50.166;18.908;2023-03-08T05:53:19;96373.00;;;0.52;62.80
21401;BME280;18038;50.166;18.908;2023-03-08T05:56:27;96368.41;;;0.46;62.91
21401;BME280;18038;50.166;18.908;2023-03-08T05:59:42;96374.56;;;0.61;62.61
21401;BME280;18038;50.166;18.908;2023-03-08T06:02:53;96366.28;;;0.49;62.47
21401;BME280;18038;50.166;18.908;2023-03-08T06:06:04;96375.28;;;0.55;62.49
21401;BME280;18038;50.166;18.908;2023-03-08T06:09:22;96388.09;;;0.50;62.58
21401;BME280;18038;50.166;18.908;2023-03-08T06:12:46;96409.19;;;0.73;62.05
21401;BME280;18038;50.166;18.908;2023-03-08T06:16:01;96430.22;;;0.73;61.98
21401;BME280;18038;50.166;18.908;2023-03-08T06:19:09;96432.69;;;0.97;61.72
21401;BME280;18038;50.166;18.908;2023-03-08T06:22:19;96442.41;;;0.97;61.12
21401;BME280;18038;50.166;18.908;2023-03-08T06:25:29;96444.81;;;0.75;61.50
21401;BME280;18038;50.166;18.908;2023-03-08T06:28:36;96444.47;;;0.78;61.67
21401;BME280;18038;50.166;18.908;2023-03-08T06:31:45;96439.59;;;0.59;62.03
21401;BME280;18038;50.166;18.908;2023-03-08T06:34:53;96450.72;;;0.69;61.83
21401;BME280;18038;50.166;18.908;2023-03-08T06:38:01;96438.66;;;0.83;61.72
21401;BME280;18038;50.166;18.908;2023-03-08T06:41:11;96437.03;;;0.82;61.25
21401;BME280;18038;50.166;18.908;2023-03-08T06:44:21;96445.59;;;0.84;60.83
21401;BME280;18038;50.166;18.908;2023-03-08T06:47:31;96455.41;;;1.21;60.36
21401;BME280;18038;50.166;18.908;2023-03-08T06:50:37;96448.34;;;1.83;58.20
21401;BME280;18038;50.166;18.908;2023-03-08T06:53:47;96439.97;;;2.47;56.41
21401;BME280;18038;50.166;18.908;2023-03-08T06:57:00;96466.63;;;3.18;53.90
21401;BME280;18038;50.166;18.908;2023-03-08T07:00:38;96458.69;;;3.33;53.00
21401;BME280;18038;50.166;18.908;2023-03-08T07:03:44;96458.81;;;3.24;52.94
21401;BME280;18038;50.166;18.908;2023-03-08T07:06:51;96473.91;;;3.74;51.79
21401;BME280;18038;50.166;18.908;2023-03-08T07:10:00;96464.72;;;3.91;50.83
21401;BME280;18038;50.166;18.908;2023-03-08T07:13:07;96467.13;;;3.64;51.54
21401;BME280;18038;50.166;18.908;2023-03-08T07:16:13;96475.25;;;4.75;49.69
21401;BME280;18038;50.166;18.908;2023-03-08T07:19:20;96471.75;;;5.10;48.33
21401;BME280;18038;50.166;18.908;2023-03-08T07:22:26;96466.38;;;4.90;48.26
21401;BME280;18038;50.166;18.908;2023-03-08T07:25:39;96473.06;;;5.40;47.93
21401;BME280;18038;50.166;18.908;2023-03-08T07:28:48;96470.09;;;5.57;46.84
21401;BME280;18038;50.166;18.908;2023-03-08T07:31:55;96486.84;;;5.84;46.10
21401;BME280;18038;50.166;18.908;2023-03-08T07:35:06;96486.97;;;6.82;43.74
21401;BME280;18038;50.166;18.908;2023-03-08T07:38:15;96495.13;;;6.87;43.92
21401;BME280;18038;50.166;18.908;2023-03-08T07:41:25;96495.16;;;6.67;43.71
21401;BME280;18038;50.166;18.908;2023-03-08T07:44:36;96506.03;;;6.26;44.43
21401;BME280;18038;50.166;18.908;2023-03-08T07:47:45;96507.94;;;6.97;43.15
21401;BME280;18038;50.166;18.908;2023-03-08T07:50:59;96510.09;;;7.27;42.45
21401;BME280;18038;50.166;18.908;2023-03-08T07:54:10;96513.22;;;7.10;42.11
21401;BME280;18038;50.166;18.908;2023-03-08T07:57:20;96514.75;;;6.46;43.83
21401;BME280;18038;50.166;18.908;2023-03-08T08:00:26;96518.03;;;6.62;43.25
21401;BME280;18038;50.166;18.908;2023-03-08T08:03:33;96510.88;;;6.69;42.88
21401;BME280;18038;50.166;18.908;2023-03-08T08:06:40;96507.41;;;7.33;42.11
21401;BME280;18038;50.166;18.908;2023-03-08T08:09:48;96499.84;;;7.43;41.79
21401;BME280;18038;50.166;18.908;2023-03-08T08:12:58;96501.44;;;7.44;41.84
21401;BME280;18038;50.166;18.908;2023-03-08T08:16:06;96489.13;;;7.57;41.49
21401;BME280;18038;50.166;18.908;2023-03-08T08:19:12;96507.78;;;7.50;41.66
21401;BME280;18038;50.166;18.908;2023-03-08T08:22:20;96506.22;;;7.74;41.00
21401;BME280;18038;50.166;18.908;2023-03-08T08:25:26;96498.25;;;8.06;40.89
21401;BME280;18038;50.166;18.908;2023-03-08T08:28:38;96496.69;;;7.92;41.17
21401;BME280;18038;50.166;18.908;2023-03-08T08:31:45;96498.41;;;8.11;40.40
21401;BME280;18038;50.166;18.908;2023-03-08T08:34:55;96496.94;;;8.15;40.31
21401;BME280;18038;50.166;18.908;2023-03-08T08:38:01;96487.13;;;8.41;39.88
21401;BME280;18038;50.166;18.908;2023-03-08T08:41:09;96484.50;;;8.59;39.83
21401;BME280;18038;50.166;18.908;2023-03-08T08:44:19;96489.94;;;9.08;38.96
21401;BME280;18038;50.166;18.908;2023-03-08T08:47:27;96488.53;;;9.72;37.92
21401;BME280;18038;50.166;18.908;2023-03-08T08:50:34;96488.13;;;9.57;37.91
21401;BME280;18038;50.166;18.908;2023-03-08T08:53:42;96478.47;;;9.86;36.71
21401;BME280;18038;50.166;18.908;2023-03-08T08:56:48;96485.13;;;10.49;35.83
21401;BME280;18038;50.166;18.908;2023-03-08T08:59:57;96490.44;;;10.72;35.15
21401;BME280;18038;50.166;18.908;2023-03-08T09:03:04;96485.09;;;10.84;35.37
21401;BME280;18038;50.166;18.908;2023-03-08T09:06:12;96490.22;;;10.74;36.43
21401;BME280;18038;50.166;18.908;2023-03-08T09:09:19;96494.63;;;10.80;39.06
21401;BME280;18038;50.166;18.908;2023-03-08T09:12:28;96491.34;;;11.13;38.78
21401;BME280;18038;50.166;18.908;2023-03-08T09:15:36;96484.13;;;11.14;37.07
21401;BME280;18038;50.166;18.908;2023-03-08T09:18:43;96490.19;;;10.98;36.34
21401;BME280;18038;50.166;18.908;2023-03-08T09:21:50;96483.94;;;10.45;36.91
21401;BME280;18038;50.166;18.908;2023-03-08T09:24:56;96483.34;;;10.43;38.16
21401;BME280;18038;50.166;18.908;2023-03-08T09:28:02;96484.16;;;10.90;35.84
21401;BME280;18038;50.166;18.908;2023-03-08T09:31:14;96481.44;;;11.54;35.11
21401;BME280;18038;50.166;18.908;2023-03-08T09:34:21;96478.66;;;11.21;36.00
21401;BME280;18038;50.166;18.908;2023-03-08T09:37:28;96489.41;;;11.78;35.72
21401;BME280;18038;50.166;18.908;2023-03-08T09:40:47;96488.66;;;12.28;34.14
21401;BME280;18038;50.166;18.908;2023-03-08T09:44:15;96492.22;;;11.59;36.39
21401;BME280;18038;50.166;18.908;2023-03-08T09:47:40;96483.06;;;11.27;37.36
21401;BME280;18038;50.166;18.908;2023-03-08T09:50:56;96492.28;;;10.95;36.87
21401;BME280;18038;50.166;18.908;2023-03-08T09:54:14;96485.03;;;10.14;38.28
21401;BME280;18038;50.166;18.908;2023-03-08T09:57:31;96475.47;;;10.36;38.16
21401;BME280;18038;50.166;18.908;2023-03-08T10:00:43;96487.06;;;10.42;38.43
21401;BME280;18038;50.166;18.908;2023-03-08T10:07:47;96478.03;;;9.89;38.67
21401;BME280;18038;50.166;18.908;2023-03-08T10:11:04;96481.97;;;9.56;39.85
21401;BME280;18038;50.166;18.908;2023-03-08T10:14:23;96470.03;;;10.55;37.90
21401;BME280;18038;50.166;18.908;2023-03-08T10:17:40;96470.25;;;10.65;38.46
21401;BME280;18038;50.166;18.908;2023-03-08T10:20:59;96466.25;;;11.03;36.22
21401;BME280;18038;50.166;18.908;2023-03-08T10:24:15;96455.19;;;11.63;36.72
21401;BME280;18038;50.166;18.908;2023-03-08T10:27:32;96456.22;;;12.24;35.43
21401;BME280;18038;50.166;18.908;2023-03-08T10:30:44;96462.97;;;11.53;35.74
21401;BME280;18038;50.166;18.908;2023-03-08T10:34:01;96452.84;;;11.83;35.47
21401;BME280;18038;50.166;18.908;2023-03-08T10:37:19;96445.38;;;10.88;36.33
21401;BME280;18038;50.166;18.908;2023-03-08T10:40:27;96441.53;;;10.13;37.73
21401;BME280;18038;50.166;18.908;2023-03-08T10:43:40;96447.09;;;9.58;39.19
21401;BME280;18038;50.166;18.908;2023-03-08T10:46:50;96455.91;;;8.91;40.82
21401;BME280;18038;50.166;18.908;2023-03-08T10:50:12;96450.97;;;8.33;41.67
21401;BME280;18038;50.166;18.908;2023-03-08T10:53:22;96450.66;;;7.98;42.05
21401;BME280;18038;50.166;18.908;2023-03-08T10:56:36;96459.03;;;7.70;43.57
21401;BME280;18038;50.166;18.908;2023-03-08T10:59:48;96440.75;;;7.48;44.30
21401;BME280;18038;50.166;18.908;2023-03-08T11:03:03;96451.75;;;7.07;45.07
21401;BME280;18038;50.166;18.908;2023-03-08T11:06:17;96448.22;;;6.68;46.75
21401;BME280;18038;50.166;18.908;2023-03-08T11:09:32;96450.72;;;6.49;46.68
21401;BME280;18038;50.166;18.908;2023-03-08T11:12:38;96438.66;;;6.53;47.50
21401;BME280;18038;50.166;18.908;2023-03-08T11:15:52;96438.84;;;6.65;46.66
21401;BME280;18038;50.166;18.908;2023-03-08T11:19:21;96426.81;;;6.56;45.93
21401;BME280;18038;50.166;18.908;2023-03-08T11:22:55;96425.84;;;6.37;44.39
21401;BME280;18038;50.166;18.908;2023-03-08T11:26:25;96426.09;;;5.82;45.06
21401;BME280;18038;50.166;18.908;2023-03-08T11:29:54;96424.47;;;5.81;45.24
21401;BME280;18038;50.166;18.908;2023-03-08T11:37:10;96415.72;;;5.67;45.32
21401;BME280;18038;50.166;18.908;2023-03-08T11:40:30;96417.72;;;6.12;44.15
21401;BME280;18038;50.166;18.908;2023-03-08T11:44:16;96417.50;;;6.20;44.03
21401;BME280;18038;50.166;18.908;2023-03-08T11:47:51;96427.94;;;5.82;44.66
21401;BME280;18038;50.166;18.908;2023-03-08T11:51:26;96416.91;;;5.58;44.81
21401;BME280;18038;50.166;18.908;2023-03-08T11:54:51;96400.56;;;5.48;45.84
21401;BME280;18038;50.166;18.908;2023-03-08T11:58:14;96392.25;;;5.78;45.27
21401;BME280;18038;50.166;18.908;2023-03-08T12:01:39;96381.03;;;5.96;43.98
21401;BME280;18038;50.166;18.908;2023-03-08T12:05:00;96384.91;;;6.00;44.02
21401;BME280;18038;50.166;18.908;2023-03-08T12:08:18;96384.28;;;6.04;44.13
21401;BME280;18038;50.166;18.908;2023-03-08T12:11:34;96376.16;;;5.79;44.00
21401;BME280;18038;50.166;18.908;2023-03-08T12:14:53;96363.75;;;5.73;44.14
21401;BME280;18038;50.166;18.908;2023-03-08T12:18:14;96362.72;;;5.94;43.81
21401;BME280;18038;50.166;18.908;2023-03-08T12:21:37;96360.84;;;6.01;43.85
21401;BME280;18038;50.166;18.908;2023-03-08T12:24:57;96347.78;;;6.06;43.29
21401;BME280;18038;50.166;18.908;2023-03-08T12:28:18;96351.84;;;6.29;42.73
21401;BME280;18038;50.166;18.908;2023-03-08T12:31:34;96351.63;;;6.17;42.16
21401;BME280;18038;50.166;18.908;2023-03-08T12:34:59;96346.91;;;6.39;42.66
21401;BME280;18038;50.166;18.908;2023-03-08T12:38:30;96337.03;;;5.95;42.77
21401;BME280;18038;50.166;18.908;2023-03-08T12:41:38;96349.84;;;5.91;42.86
21401;BME280;18038;50.166;18.908;2023-03-08T12:44:45;96353.53;;;5.77;43.53
21401;BME280;18038;50.166;18.908;2023-03-08T12:48:00;96340.94;;;5.65;43.11
21401;BME280;18038;50.166;18.908;2023-03-08T12:51:28;96345.59;;;5.63;43.72
21401;BME280;18038;50.166;18.908;2023-03-08T12:54:37;96338.69;;;5.62;43.79
21401;BME280;18038;50.166;18.908;2023-03-08T12:57:49;96333.56;;;5.74;43.69
21401;BME280;18038;50.166;18.908;2023-03-08T13:01:01;96343.94;;;5.96;42.76
21401;BME280;18038;50.166;18.908;2023-03-08T13:04:26;96338.88;;;5.81;43.12
21401;BME280;18038;50.166;18.908;2023-03-08T13:07:58;96328.88;;;5.83;42.93
21401;BME280;18038;50.166;18.908;2023-03-08T13:11:11;96323.72;;;6.15;42.56
21401;BME280;18038;50.166;18.908;2023-03-08T13:14:26;96320.00;;;6.29;41.69
21401;BME280;18038;50.166;18.908;2023-03-08T13:17:49;96317.41;;;6.16;41.30
21401;BME280;18038;50.166;18.908;2023-03-08T13:21:19;96302.53;;;6.01;41.24
21401;BME280;18038;50.166;18.908;2023-03-08T13:24:43;96308.25;;;6.05;41.58
21401;BME280;18038;50.166;18.908;2023-03-08T13:28:03;96305.91;;;6.42;41.53
21401;BME280;18038;50.166;18.908;2023-03-08T13:31:15;96297.16;;;6.28;41.16
21401;BME280;18038;50.166;18.908;2023-03-08T13:34:26;96295.97;;;6.24;41.84
21401;BME280;18038;50.166;18.908;2023-03-08T13:37:34;96289.75;;;6.43;42.04
21401;BME280;18038;50.166;18.908;2023-03-08T13:40:50;96279.88;;;6.64;40.72
21401;BME280;18038;50.166;18.908;2023-03-08T13:44:02;96282.66;;;6.30;41.78
21401;BME280;18038;50.166;18.908;2023-03-08T13:47:20;96273.13;;;6.23;41.41
21401;BME280;18038;50.166;18.908;2023-03-08T13:50:34;96268.16;;;5.81;41.61
21401;BME280;18038;50.166;18.908;2023-03-08T13:53:43;96260.75;;;6.03;41.67
21401;BME280;18038;50.166;18.908;2023-03-08T13:56:54;96258.19;;;5.77;42.54
21401;BME280;18038;50.166;18.908;2023-03-08T14:00:26;96236.59;;;5.66;42.44
21401;BME280;18038;50.166;18.908;2023-03-08T14:03:34;96224.53;;;5.84;41.59
21401;BME280;18038;50.166;18.908;2023-03-08T14:06:48;96218.03;;;5.80;41.98
21401;BME280;18038;50.166;18.908;2023-03-08T14:09:57;96209.84;;;5.95;42.03
21401;BME280;18038;50.166;18.908;2023-03-08T14:13:15;96200.66;;;5.90;41.56
21401;BME280;18038;50.166;18.908;2023-03-08T14:16:31;96196.22;;;5.84;41.56
21401;BME280;18038;50.166;18.908;2023-03-08T14:19:39;96203.13;;;5.85;41.98
21401;BME280;18038;50.166;18.908;2023-03-08T14:22:49;96200.75;;;5.64;42.29
21401;BME280;18038;50.166;18.908;2023-03-08T14:25:58;96196.06;;;5.66;42.67
21401;BME280;18038;50.166;18.908;2023-03-08T14:29:17;96185.69;;;5.51;42.77
21401;BME280;18038;50.166;18.908;2023-03-08T14:32:29;96183.66;;;5.53;43.15
21401;BME280;18038;50.166;18.908;2023-03-08T14:35:39;96179.38;;;5.45;43.31
21401;BME280;18038;50.166;18.908;2023-03-08T14:38:49;96182.25;;;5.44;42.56
21401;BME280;18038;50.166;18.908;2023-03-08T14:41:57;96189.38;;;5.30;43.35
21401;BME280;18038;50.166;18.908;2023-03-08T14:45:21;96180.81;;;5.35;43.60
21401;BME280;18038;50.166;18.908;2023-03-08T14:48:32;96177.38;;;5.41;43.09
21401;BME280;18038;50.166;18.908;2023-03-08T14:51:41;96169.81;;;5.51;43.03
21401;BME280;18038;50.166;18.908;2023-03-08T14:54:48;96182.63;;;5.47;43.44
21401;BME280;18038;50.166;18.908;2023-03-08T14:57:59;96185.06;;;5.62;43.22
21401;BME280;18038;50.166;18.908;2023-03-08T15:01:10;96180.81;;;5.41;44.32
21401;BME280;18038;50.166;18.908;2023-03-08T15:04:17;96183.69;;;5.13;45.08
21401;BME280;18038;50.166;18.908;2023-03-08T15:07:33;96179.03;;;4.62;48.00
21401;BME280;18038;50.166;18.908;2023-03-08T15:10:42;96154.72;;;4.05;49.68
21401;BME280;18038;50.166;18.908;2023-03-08T15:13:49;96168.50;;;3.87;51.45
21401;BME280;18038;50.166;18.908;2023-03-08T15:16:58;96156.72;;;3.97;50.39
21401;BME280;18038;50.166;18.908;2023-03-08T15:20:06;96145.50;;;3.81;51.41
21401;BME280;18038;50.166;18.908;2023-03-08T15:23:25;96156.00;;;3.68;54.08
21401;BME280;18038;50.166;18.908;2023-03-08T15:26:34;96135.94;;;3.80;53.70
21401;BME280;18038;50.166;18.908;2023-03-08T15:29:40;96127.44;;;3.91;52.03
21401;BME280;18038;50.166;18.908;2023-03-08T15:32:50;96109.41;;;4.15;51.16
21401;BME280;18038;50.166;18.908;2023-03-08T15:36:12;96124.28;;;4.23;51.51
21401;BME280;18038;50.166;18.908;2023-03-08T15:39:20;96117.16;;;4.17;50.64
21401;BME280;18038;50.166;18.908;2023-03-08T15:42:32;96121.03;;;4.34;50.57
21401;BME280;18038;50.166;18.908;2023-03-08T15:45:39;96115.97;;;4.32;50.42
21401;BME280;18038;50.166;18.908;2023-03-08T15:48:54;96127.50;;;4.18;51.66
21401;BME280;18038;50.166;18.908;2023-03-08T15:52:01;96111.84;;;4.10;52.01
21401;BME280;18038;50.166;18.908;2023-03-08T15:55:11;96114.28;;;4.18;52.72
21401;BME280;18038;50.166;18.908;2023-03-08T15:58:19;96114.31;;;4.31;52.64
21401;BME280;18038;50.166;18.908;2023-03-08T16:01:26;96124.88;;;4.31;52.92
21401;BME280;18038;50.166;18.908;2023-03-08T16:04:38;96120.81;;;4.29;53.78
21401;BME280;18038;50.166;18.908;2023-03-08T16:07:47;96119.56;;;4.05;54.21
21401;BME280;18038;50.166;18.908;2023-03-08T16:10:57;96124.19;;;3.89;55.19
21401;BME280;18038;50.166;18.908;2023-03-08T16:14:18;96120.97;;;4.01;55.18
21401;BME280;18038;50.166;18.908;2023-03-08T16:17:31;96119.78;;;4.10;55.17
21401;BME280;18038;50.166;18.908;2023-03-08T16:20:41;96127.44;;;3.85;56.75
21401;BME280;18038;50.166;18.908;2023-03-08T16:23:48;96122.66;;;3.60;57.83
21401;BME280;18038;50.166;18.908;2023-03-08T16:26:54;96118.63;;;3.64;57.96
21401;BME280;18038;50.166;18.908;2023-03-08T16:30:13;96121.09;;;3.73;57.68
21401;BME280;18038;50.166;18.908;2023-03-08T16:33:20;96120.47;;;3.70;57.50
21401;BME280;18038;50.166;18.908;2023-03-08T16:36:30;96133.31;;;3.80;58.01
21401;BME280;18038;50.166;18.908;2023-03-08T16:39:43;96130.81;;;3.65;58.71
21401;BME280;18038;50.166;18.908;2023-03-08T16:42:50;96134.63;;;3.56;59.57
21401;BME280;18038;50.166;18.908;2023-03-08T16:45:58;96134.13;;;3.39;60.42
21401;BME280;18038;50.166;18.908;2023-03-08T16:49:06;96139.22;;;3.41;60.90
21401;BME280;18038;50.166;18.908;2023-03-08T16:52:24;96133.50;;;3.31;61.76
21401;BME280;18038;50.166;18.908;2023-03-08T16:55:34;96132.28;;;3.33;61.84
21401;BME280;18038;50.166;18.908;2023-03-08T16:58:43;96133.38;;;3.45;62.07
21401;BME280;18038;50.166;18.908;2023-03-08T17:01:50;96135.50;;;3.29;64.38
21401;BME280;18038;50.166;18.908;2023-03-08T17:05:02;96133.41;;;3.11;65.75